Time;durP1;ratioP1;P1;durP2;ratioP2;P2;SDS_P1;SDS_P2;PMS_P1;PMS_P2;Temp;Humidity;BMP_temperature;BMP_pressure;BME280_temperature;BME280_humidity;BME280_pressure;Samples;Min_cycle;Max_cycle;Signal;HPM_P1;HPM_P2
2023/03/02 00:01:24;;;;;;;0.87;0.87;;;4.00;99.90;;;;;;5072939;28;20296;-84
2023/03/02 00:03:50;;;;;;;1.50;1.40;;;4.00;99.90;;;;;;5073041;28;20213;-83
2023/03/02 00:06:16;;;;;;;2.67;1.07;;;4.00;99.90;;;;;;5072572;28;20297;-84
2023/03/02 00:08:42;;;;;;;1.03;0.67;;;4.00;99.90;;;;;;5071242;28;20201;-83
2023/03/02 00:11:08;;;;;;;0.83;0.83;;;4.00;99.90;;;;;;5071348;28;20308;-87
2023/03/02 00:13:35;;;;;;;1.00;1.00;;;4.00;99.90;;;;;;5071132;28;20805;-86
2023/03/02 00:16:01;;;;;;;1.47;1.37;;;4.00;99.90;;;;;;5068971;28;20253;-84
2023/03/02 00:18:27;;;;;;;0.87;0.87;;;4.00;99.90;;;;;;5091010;28;20648;-89
2023/03/02 00:20:53;;;;;;;0.97;0.97;;;4.00;99.90;;;;;;5056212;28;20185;-83
2023/03/02 00:23:19;;;;;;;4.43;2.03;;;4.00;99.90;;;;;;5073157;28;20184;-84
2023/03/02 00:25:44;;;;;;;1.00;1.00;;;3.90;99.90;;;;;;5073221;28;20238;-85
2023/03/02 00:28:10;;;;;;;1.23;0.90;;;3.90;99.90;;;;;;5074139;28;20224;-85
2023/03/02 00:30:37;;;;;;;1.47;0.80;;;3.90;99.90;;;;;;5074150;28;20216;-83
2023/03/02 00:33:03;;;;;;;1.77;1.67;;;3.90;99.90;;;;;;5074654;28;20295;-84
2023/03/02 00:35:29;;;;;;;6.27;2.17;;;3.80;99.90;;;;;;5074611;28;20628;-86
2023/03/02 00:37:55;;;;;;;1.23;1.20;;;3.80;99.90;;;;;;5074588;28;20266;-87
2023/03/02 00:40:21;;;;;;;1.37;1.37;;;3.70;99.90;;;;;;5092420;28;20240;-82
2023/03/02 00:42:46;;;;;;;1.67;1.57;;;3.70;99.90;;;;;;5073704;28;20220;-85
2023/03/02 00:45:12;;;;;;;1.00;1.00;;;3.70;99.90;;;;;;5091459;28;20216;-83
2023/03/02 00:47:38;;;;;;;0.77;0.77;;;3.60;99.90;;;;;;5072858;28;20207;-86
2023/03/02 00:50:05;;;;;;;0.67;0.53;;;3.60;99.90;;;;;;5073561;28;20216;-87
2023/03/02 00:52:32;;;;;;;0.40;0.40;;;3.60;99.90;;;;;;5072612;28;20217;-83
2023/03/02 00:54:58;;;;;;;0.97;0.97;;;3.60;99.90;;;;;;5090640;28;20311;-86
2023/03/02 00:57:24;;;;;;;1.00;1.00;;;3.60;99.90;;;;;;5090459;28;20706;-86
2023/03/02 00:59:50;;;;;;;1.37;1.27;;;3.60;99.90;;;;;;5072543;28;20220;-83
2023/03/02 01:02:16;;;;;;;0.67;0.67;;;3.60;99.90;;;;;;5089715;28;20184;-83
2023/03/02 01:04:42;;;;;;;0.33;0.33;;;3.60;99.90;;;;;;5072722;28;20695;-86
2023/03/02 01:07:11;;;;;;;0.30;0.30;;;3.60;99.90;;;;;;5073513;28;20477;-84
2023/03/02 01:09:39;;;;;;;0.77;0.77;;;3.50;99.90;;;;;;5091380;28;20223;-86
2023/03/02 01:12:08;;;;;;;0.60;0.60;;;3.40;99.90;;;;;;5089996;28;20669;-84
2023/03/02 01:14:35;;;;;;;2.87;1.80;;;3.50;99.90;;;;;;5072408;28;20720;-83
2023/03/02 01:17:02;;;;;;;0.87;0.67;;;3.50;99.90;;;;;;5074697;28;20185;-84
2023/03/02 01:19:28;;;;;;;0.30;0.30;;;3.50;99.90;;;;;;5091746;28;20320;-84
2023/03/02 01:21:54;;;;;;;0.60;0.60;;;3.50;99.90;;;;;;5091567;28;20235;-83
2023/03/02 01:24:20;;;;;;;0.33;0.33;;;3.40;99.90;;;;;;5072030;28;20861;-83
2023/03/02 01:26:45;;;;;;;1.27;1.17;;;3.40;99.90;;;;;;5087579;28;20268;-83
2023/03/02 01:29:11;;;;;;;0.87;0.87;;;3.40;99.90;;;;;;5071133;28;20216;-83
2023/03/02 01:31:38;;;;;;;0.70;0.60;;;3.40;99.90;;;;;;5087362;28;20213;-83
2023/03/02 01:34:04;;;;;;;0.80;0.80;;;3.40;99.90;;;;;;5087824;28;20670;-82
2023/03/02 01:36:29;;;;;;;1.70;1.70;;;3.40;99.90;;;;;;5070527;28;20221;-84
2023/03/02 01:38:55;;;;;;;0.97;0.93;;;3.40;99.90;;;;;;5070429;28;20300;-83
2023/03/02 01:41:21;;;;;;;0.60;0.60;;;3.40;99.90;;;;;;5070798;28;20754;-83
2023/03/02 01:43:47;;;;;;;1.70;1.60;;;3.40;99.90;;;;;;5070468;28;20222;-83
2023/03/02 01:46:19;;;;;;;0.93;0.93;;;3.40;99.90;;;;;;5053972;28;20236;-83
2023/03/02 01:49:04;;;;;;;0.97;0.87;;;3.50;99.90;;;;;;5088386;28;20229;-83
2023/03/02 01:51:34;;;;;;;1.60;1.50;;;3.50;99.90;;;;;;5088078;28;20350;-84
2023/03/02 01:54:05;;;;;;;1.40;1.30;;;3.50;99.90;;;;;;5070549;28;20677;-84
2023/03/02 01:56:36;;;;;;;0.80;0.80;;;3.50;99.90;;;;;;5088426;28;20251;-83
2023/03/02 01:59:08;;;;;;;1.83;1.73;;;3.50;99.90;;;;;;5088325;28;20273;-83
2023/03/02 02:01:37;;;;;;;1.17;1.10;;;3.50;99.90;;;;;;5087929;28;20258;-84
2023/03/02 02:04:03;;;;;;;1.27;1.20;;;3.60;99.90;;;;;;5087823;28;20302;-83
2023/03/02 02:06:43;;;;;;;2.23;1.67;;;3.60;99.90;;;;;;5103630;28;20205;-83
2023/03/02 02:09:13;;;;;;;0.83;0.83;;;3.60;99.90;;;;;;5103862;28;20296;-84
2023/03/02 02:11:38;;;;;;;1.97;1.60;;;3.60;99.90;;;;;;5078214;28;20786;-83
2023/03/02 02:14:05;;;;;;;1.93;1.63;;;3.60;99.90;;;;;;5103531;28;20177;-83
2023/03/02 02:16:33;;;;;;;0.97;0.97;;;3.60;99.90;;;;;;5069437;28;20700;-83
2023/03/02 02:19:00;;;;;;;2.93;1.47;;;3.60;99.90;;;;;;5087757;28;20247;-83
2023/03/02 02:21:27;;;;;;;0.97;0.97;;;3.50;99.90;;;;;;5087670;28;20219;-83
2023/03/02 02:24:10;;;;;;;1.30;1.20;;;3.50;99.90;;;;;;5087910;28;20275;-84
2023/03/02 02:26:46;;;;;;;1.53;1.10;;;3.40;99.90;;;;;;5081165;28;20161;-83
2023/03/02 02:29:28;;;;;;;1.20;1.10;;;3.30;99.90;;;;;;5088347;28;20257;-82
2023/03/02 02:32:00;;;;;;;1.97;1.13;;;3.30;99.90;;;;;;5087893;28;20562;-84
2023/03/02 02:34:29;;;;;;;1.63;1.53;;;3.20;99.90;;;;;;5079888;28;20231;-83
2023/03/02 02:37:02;;;;;;;3.47;1.70;;;3.10;99.90;;;;;;5103249;28;20737;-84
2023/03/02 02:39:33;;;;;;;1.77;1.63;;;3.00;99.90;;;;;;5061586;28;20216;-83
2023/03/02 02:42:02;;;;;;;3.03;1.33;;;2.90;99.90;;;;;;5087354;28;20208;-83
2023/03/02 02:44:29;;;;;;;1.50;1.43;;;2.80;99.90;;;;;;5069225;28;20181;-83
2023/03/02 02:46:55;;;;;;;1.73;1.50;;;2.80;99.90;;;;;;5087624;28;20216;-82
2023/03/02 02:49:32;;;;;;;2.07;1.23;;;2.70;99.90;;;;;;5085844;28;20231;-83
2023/03/02 02:51:58;;;;;;;1.00;1.00;;;2.70;99.90;;;;;;5086097;28;20220;-83
2023/03/02 02:54:26;;;;;;;1.43;1.33;;;2.70;99.90;;;;;;5069195;28;20212;-83
2023/03/02 02:56:53;;;;;;;40.10;2.60;;;2.70;99.90;;;;;;5086289;28;20181;-83
2023/03/02 02:59:27;;;;;;;2.50;1.77;;;2.70;99.90;;;;;;5053062;28;20346;-83
2023/03/02 03:01:54;;;;;;;1.33;1.33;;;2.60;99.90;;;;;;5087612;28;20838;-83
2023/03/02 03:04:25;;;;;;;1.67;1.57;;;2.60;99.90;;;;;;5086039;28;20295;-83
2023/03/02 03:06:53;;;;;;;1.90;1.80;;;2.60;99.90;;;;;;5087644;28;20700;-83
2023/03/02 03:09:20;;;;;;;1.43;1.43;;;2.50;99.90;;;;;;5087429;28;20217;-84
2023/03/02 03:11:53;;;;;;;2.03;1.93;;;2.50;99.90;;;;;;5085930;28;20206;-83
2023/03/02 03:14:25;;;;;;;0.60;0.60;;;2.50;99.90;;;;;;5086725;28;20165;-84
2023/03/02 03:16:51;;;;;;;1.63;1.53;;;2.50;99.90;;;;;;5085725;28;20240;-83
2023/03/02 03:19:19;;;;;;;1.20;1.20;;;2.30;99.90;;;;;;5068916;28;20319;-83
2023/03/02 03:21:47;;;;;;;1.73;1.17;;;2.10;99.90;;;;;;5087094;28;20212;-84
2023/03/02 03:24:13;;;;;;;2.77;1.90;;;2.30;99.90;;;;;;5085683;28;20213;-82
2023/03/02 03:26:39;;;;;;;1.37;1.27;;;2.50;99.90;;;;;;5087044;28;20280;-83
2023/03/02 03:29:05;;;;;;;1.40;1.30;;;2.70;99.90;;;;;;5086579;28;20172;-83
2023/03/02 03:31:31;;;;;;;2.27;1.97;;;2.90;99.90;;;;;;5085562;28;20225;-83
2023/03/02 03:33:59;;;;;;;2.40;1.60;;;3.00;99.90;;;;;;5085893;28;20225;-84
2023/03/02 03:36:27;;;;;;;4.60;3.00;;;3.00;99.90;;;;;;5086875;28;20213;-83
2023/03/02 03:38:53;;;;;;;2.60;2.33;;;3.10;99.90;;;;;;5086015;28;20208;-84
2023/03/02 03:41:19;;;;;;;2.10;2.00;;;3.20;99.90;;;;;;5086332;28;20217;-84
2023/03/02 03:43:44;;;;;;;3.90;2.17;;;3.20;99.90;;;;;;5068352;28;20861;-83
2023/03/02 03:46:10;;;;;;;2.77;2.27;;;3.20;99.90;;;;;;5085322;28;20209;-84
2023/03/02 03:48:36;;;;;;;1.97;1.83;;;3.40;99.90;;;;;;5085076;28;20678;-84
2023/03/02 03:51:02;;;;;;;4.27;2.23;;;3.40;99.90;;;;;;5086647;28;20223;-82
2023/03/02 03:53:28;;;;;;;1.70;1.10;;;3.40;99.90;;;;;;5086175;28;20231;-83
2023/03/02 03:55:55;;;;;;;3.10;2.17;;;3.40;99.90;;;;;;5085255;28;20857;-83
2023/03/02 03:58:23;;;;;;;2.47;2.27;;;3.50;99.90;;;;;;5089137;28;20216;-83
2023/03/02 04:00:50;;;;;;;2.10;2.00;;;3.50;99.90;;;;;;5089175;28;20212;-83
2023/03/02 04:03:16;;;;;;;5.20;3.73;;;3.60;99.90;;;;;;5089266;28;20216;-84
2023/03/02 04:05:42;;;;;;;3.80;3.50;;;3.60;99.90;;;;;;5088815;28;20237;-83
2023/03/02 04:08:10;;;;;;;3.13;2.10;;;3.60;99.90;;;;;;5089466;28;20189;-83
2023/03/02 04:10:36;;;;;;;1.73;1.63;;;3.60;99.90;;;;;;5090171;28;20212;-83
2023/03/02 04:13:01;;;;;;;2.47;2.30;;;3.60;99.90;;;;;;5090023;28;20212;-84
2023/03/02 04:15:28;;;;;;;3.83;3.53;;;3.60;99.90;;;;;;5088255;28;20319;-84
2023/03/02 04:17:53;;;;;;;2.87;2.67;;;3.60;99.90;;;;;;5089931;28;20228;-84
2023/03/02 04:20:21;;;;;;;2.13;2.03;;;3.60;99.90;;;;;;5072110;28;20209;-84
2023/03/02 04:22:49;;;;;;;1.77;1.63;;;3.60;99.90;;;;;;5089789;28;20238;-84
2023/03/02 04:25:20;;;;;;;5.53;2.43;;;3.60;99.90;;;;;;5089890;28;20353;-83
2023/03/02 04:27:51;;;;;;;3.70;3.27;;;3.60;99.90;;;;;;5089966;28;20216;-83
2023/03/02 04:30:19;;;;;;;4.00;3.73;;;3.60;99.90;;;;;;5090006;28;20281;-84
2023/03/02 04:32:45;;;;;;;4.63;4.07;;;3.60;99.90;;;;;;5088455;28;20172;-83
2023/03/02 04:35:12;;;;;;;1.23;1.20;;;3.60;99.90;;;;;;5090354;28;20224;-84
2023/03/02 04:37:40;;;;;;;4.33;1.63;;;3.60;99.90;;;;;;5071242;28;20224;-84
2023/03/02 04:40:07;;;;;;;1.57;1.47;;;3.60;99.90;;;;;;5089690;28;20255;-84
2023/03/02 04:42:34;;;;;;;1.37;1.33;;;3.60;99.90;;;;;;5087952;28;20673;-83
2023/03/02 04:44:59;;;;;;;3.90;3.37;;;3.60;99.90;;;;;;5089079;28;20216;-83
2023/03/02 04:47:25;;;;;;;2.97;2.67;;;3.60;99.90;;;;;;5088920;28;20183;-82
2023/03/02 04:49:53;;;;;;;2.50;2.27;;;3.60;99.90;;;;;;5089146;28;20273;-83
2023/03/02 04:52:23;;;;;;;1.23;1.23;;;3.60;99.90;;;;;;5087936;28;20226;-83
2023/03/02 04:54:50;;;;;;;1.90;1.07;;;3.60;99.90;;;;;;5089433;28;20209;-83
2023/03/02 04:57:16;;;;;;;2.77;2.50;;;3.60;99.90;;;;;;5087914;28;20218;-83
2023/03/02 04:59:41;;;;;;;1.73;1.63;;;3.60;99.90;;;;;;5071209;28;20303;-83
2023/03/02 05:02:07;;;;;;;2.87;2.67;;;3.60;99.90;;;;;;5089763;28;20187;-84
2023/03/02 05:04:33;;;;;;;2.73;2.53;;;3.60;99.90;;;;;;5088473;28;20217;-84
2023/03/02 05:06:59;;;;;;;3.70;3.33;;;3.50;99.90;;;;;;5088214;28;20216;-83
2023/03/02 05:09:29;;;;;;;3.47;3.17;;;3.60;99.90;;;;;;5086782;28;20228;-83
2023/03/02 05:11:57;;;;;;;1.93;1.63;;;3.60;99.90;;;;;;5089288;28;20344;-83
2023/03/02 05:14:24;;;;;;;5.10;3.17;;;3.60;99.90;;;;;;5088208;28;20219;-83
2023/03/02 05:16:49;;;;;;;2.77;2.60;;;3.60;99.90;;;;;;5088535;28;20814;-83
2023/03/02 05:19:18;;;;;;;2.30;1.73;;;3.60;99.90;;;;;;5087459;28;20243;-82
2023/03/02 05:21:44;;;;;;;3.03;2.50;;;3.60;99.90;;;;;;5087708;28;20208;-83
2023/03/02 05:24:11;;;;;;;3.13;2.20;;;3.50;99.90;;;;;;5087717;28;20219;-82
2023/03/02 05:26:37;;;;;;;6.27;2.40;;;3.50;99.90;;;;;;5087662;28;20545;-82
2023/03/02 05:29:04;;;;;;;4.20;2.53;;;3.50;99.90;;;;;;5087823;28;20275;-83
2023/03/02 05:31:39;;;;;;;3.33;2.90;;;3.60;99.90;;;;;;5087166;28;20225;-82
2023/03/02 05:34:08;;;;;;;3.20;2.93;;;3.50;99.90;;;;;;5088408;28;20383;-83
2023/03/02 05:36:34;;;;;;;4.13;2.57;;;3.50;99.90;;;;;;5088204;28;20208;-83
2023/03/02 05:39:00;;;;;;;2.50;2.40;;;3.60;99.90;;;;;;5088669;28;20232;-84
2023/03/02 05:41:26;;;;;;;8.07;3.57;;;3.50;99.90;;;;;;5071324;28;20745;-85
2023/03/02 05:43:52;;;;;;;3.57;2.87;;;3.50;99.90;;;;;;5088604;28;20205;-84
2023/03/02 05:46:18;;;;;;;5.03;2.90;;;3.50;99.90;;;;;;5087443;28;20228;-85
2023/03/02 05:48:44;;;;;;;4.77;4.37;;;3.40;99.90;;;;;;5088512;28;20212;-84
2023/03/02 05:51:10;;;;;;;6.43;4.17;;;3.50;99.90;;;;;;5070589;28;20216;-83
2023/03/02 05:53:35;;;;;;;6.43;3.43;;;3.50;99.90;;;;;;5087856;28;20331;-82
2023/03/02 05:56:02;;;;;;;10.87;5.00;;;3.50;99.90;;;;;;5070142;28;20765;-83
2023/03/02 05:58:28;;;;;;;5.87;5.33;;;3.50;99.90;;;;;;5086800;28;20243;-82
2023/03/02 06:00:56;;;;;;;7.47;4.37;;;3.50;99.90;;;;;;5087635;28;20244;-82
2023/03/02 06:03:22;;;;;;;5.17;3.60;;;3.50;99.90;;;;;;5086839;28;20220;-83
2023/03/02 06:05:51;;;;;;;4.97;4.57;;;3.50;99.90;;;;;;5086356;28;20638;-81
2023/03/02 06:08:20;;;;;;;11.27;4.43;;;3.50;99.90;;;;;;5087188;28;20279;-82
2023/03/02 06:10:49;;;;;;;3.37;3.20;;;3.50;99.90;;;;;;5086735;28;20240;-82
2023/03/02 06:13:15;;;;;;;6.60;4.93;;;3.60;99.90;;;;;;5087763;28;20303;-82
2023/03/02 06:15:42;;;;;;;6.33;5.57;;;3.60;99.90;;;;;;5086109;28;20319;-83
2023/03/02 06:18:07;;;;;;;8.63;6.00;;;3.60;99.90;;;;;;5082012;28;20319;-82
2023/03/02 06:20:33;;;;;;;8.37;5.60;;;3.60;99.90;;;;;;5087972;28;20793;-80
2023/03/02 06:22:59;;;;;;;10.83;5.67;;;3.60;99.90;;;;;;5086475;28;20665;-82
2023/03/02 06:25:25;;;;;;;3.27;2.37;;;3.60;99.90;;;;;;5086171;28;20653;-82
2023/03/02 06:27:52;;;;;;;7.63;6.87;;;3.60;99.90;;;;;;5086468;28;20220;-82
2023/03/02 06:30:21;;;;;;;3.77;3.43;;;3.70;99.90;;;;;;5087339;28;20688;-82
2023/03/02 06:32:47;;;;;;;5.37;4.43;;;3.60;99.90;;;;;;5087334;28;20630;-82
2023/03/02 06:35:13;;;;;;;3.73;3.43;;;3.70;99.90;;;;;;5069955;28;20180;-82
2023/03/02 06:37:39;;;;;;;5.70;3.97;;;3.70;99.90;;;;;;5086135;28;20219;-83
2023/03/02 06:40:09;;;;;;;4.17;3.23;;;3.70;99.90;;;;;;5086591;28;20464;-82
2023/03/02 06:42:39;;;;;;;6.17;3.10;;;3.70;99.90;;;;;;5087854;28;20328;-82
2023/03/02 06:45:06;;;;;;;10.60;4.83;;;3.70;99.90;;;;;;5087630;28;20596;-83
2023/03/02 06:47:32;;;;;;;4.83;2.33;;;3.70;99.90;;;;;;5087162;28;20169;-82
2023/03/02 06:49:58;;;;;;;9.13;4.93;;;3.70;99.90;;;;;;5069255;28;20227;-82
2023/03/02 06:52:26;;;;;;;7.03;5.00;;;3.70;99.90;;;;;;5087143;28;20677;-82
2023/03/02 06:54:52;;;;;;;3.63;3.33;;;3.60;99.90;;;;;;5087127;28;20694;-82
2023/03/02 06:57:18;;;;;;;2.73;2.53;;;3.70;99.90;;;;;;5085991;28;20236;-82
2023/03/02 06:59:44;;;;;;;6.83;4.20;;;3.70;99.90;;;;;;5085931;28;20232;-81
2023/03/02 07:02:10;;;;;;;4.87;3.93;;;3.70;99.90;;;;;;5086683;28;20608;-83
2023/03/02 07:04:36;;;;;;;4.70;3.73;;;3.70;99.90;;;;;;5085865;28;20360;-82
2023/03/02 07:07:02;;;;;;;4.50;4.20;;;3.70;99.90;;;;;;5086118;28;20232;-82
2023/03/02 07:09:29;;;;;;;5.37;3.97;;;3.80;99.90;;;;;;5085659;28;20247;-81
2023/03/02 07:11:56;;;;;;;3.27;1.60;;;3.80;99.90;;;;;;5085694;28;20355;-82
2023/03/02 07:14:21;;;;;;;3.20;2.73;;;3.70;99.90;;;;;;5086223;28;20173;-81
2023/03/02 07:16:47;;;;;;;3.53;3.23;;;3.60;99.90;;;;;;5085371;28;20240;-82
2023/03/02 07:19:13;;;;;;;1.87;1.77;;;3.70;99.90;;;;;;5069413;28;20236;-83
2023/03/02 07:21:39;;;;;;;7.17;6.37;;;3.70;99.90;;;;;;5086161;28;20208;-82
2023/03/02 07:24:05;;;;;;;4.10;3.67;;;3.70;99.90;;;;;;5086112;28;20239;-83
2023/03/02 07:26:31;;;;;;;10.07;4.70;;;3.60;99.90;;;;;;5087023;28;20205;-83
2023/03/02 07:28:59;;;;;;;3.17;2.90;;;3.50;99.90;;;;;;5068905;28;20704;-83
2023/03/02 07:31:28;;;;;;;6.83;3.63;;;3.60;99.90;;;;;;5087205;28;20216;-84
2023/03/02 07:33:54;;;;;;;5.43;3.87;;;3.60;99.90;;;;;;5072933;28;20209;-82
2023/03/02 07:36:20;;;;;;;8.27;4.80;;;3.70;99.90;;;;;;5072613;28;20221;-84
2023/03/02 07:38:47;;;;;;;8.40;4.83;;;3.70;99.90;;;;;;5089346;28;20302;-82
2023/03/02 07:41:14;;;;;;;2.47;2.27;;;3.70;99.90;;;;;;5090063;28;20169;-82
2023/03/02 07:43:40;;;;;;;4.00;3.60;;;3.70;99.90;;;;;;5090486;28;20583;-81
2023/03/02 07:46:05;;;;;;;2.03;1.93;;;3.60;99.90;;;;;;5089333;28;20229;-84
2023/03/02 07:48:33;;;;;;;4.97;3.23;;;3.40;99.90;;;;;;5089024;28;20216;-82
2023/03/02 07:51:04;;;;;;;3.20;3.00;;;3.40;99.90;;;;;;5089106;28;20204;-85
2023/03/02 07:53:30;;;;;;;3.63;1.83;;;3.50;99.90;;;;;;5090847;28;20648;-84
2023/03/02 07:55:56;;;;;;;3.13;2.97;;;3.50;99.90;;;;;;5090166;28;20224;-81
2023/03/02 07:58:23;;;;;;;6.07;2.40;;;3.50;99.90;;;;;;5089143;28;20677;-82
2023/03/02 08:00:49;;;;;;;4.27;3.87;;;3.50;99.90;;;;;;5088791;28;20216;-82
2023/03/02 08:03:15;;;;;;;3.67;2.67;;;3.50;99.90;;;;;;5090292;28;20224;-82
2023/03/02 08:05:41;;;;;;;4.00;3.37;;;3.40;99.90;;;;;;5088930;28;20501;-82
2023/03/02 08:08:06;;;;;;;3.03;2.83;;;3.40;99.90;;;;;;5090884;28;20638;-82
2023/03/02 08:10:36;;;;;;;19.43;3.30;;;3.30;99.90;;;;;;5072637;28;20220;-83
2023/03/02 08:13:02;;;;;;;1.70;1.60;;;3.40;99.90;;;;;;5090021;28;20208;-84
2023/03/02 08:15:28;;;;;;;2.37;2.17;;;3.40;99.90;;;;;;5088925;28;20681;-83
2023/03/02 08:17:54;;;;;;;4.20;3.93;;;3.50;99.90;;;;;;5088416;28;20255;-83
2023/03/02 08:20:20;;;;;;;5.67;3.33;;;3.60;99.90;;;;;;5090351;28;20216;-83
2023/03/02 08:22:45;;;;;;;3.13;2.93;;;3.70;99.90;;;;;;5088492;28;20266;-84
2023/03/02 08:25:11;;;;;;;6.63;3.87;;;3.70;99.90;;;;;;5088354;28;20297;-82
2023/03/02 08:27:39;;;;;;;3.80;3.47;;;3.80;99.90;;;;;;5089511;28;20224;-82
2023/03/02 08:30:06;;;;;;;3.13;2.93;;;3.70;99.90;;;;;;5088073;28;20216;-84
2023/03/02 08:32:32;;;;;;;4.17;3.87;;;3.60;99.90;;;;;;5089141;28;20177;-86
2023/03/02 08:34:58;;;;;;;4.47;3.83;;;3.60;99.90;;;;;;5089276;28;20794;-85
2023/03/02 08:37:24;;;;;;;7.07;3.53;;;3.50;99.90;;;;;;5088896;28;20212;-84
2023/03/02 08:39:50;;;;;;;2.97;2.13;;;3.50;99.90;;;;;;5089963;28;20232;-85
2023/03/02 08:42:16;;;;;;;3.67;3.33;;;3.60;99.90;;;;;;5072045;28;20215;-85
2023/03/02 08:44:43;;;;;;;3.93;3.50;;;3.70;99.90;;;;;;5088627;28;20267;-84
2023/03/02 08:47:08;;;;;;;1.27;1.27;;;3.80;99.90;;;;;;5089313;28;20177;-84
2023/03/02 08:49:36;;;;;;;3.97;3.63;;;3.80;99.90;;;;;;5072699;28;20591;-85
2023/03/02 08:52:03;;;;;;;5.67;4.00;;;3.90;99.90;;;;;;5073672;28;20666;-85
2023/03/02 08:54:29;;;;;;;6.07;3.30;;;4.50;99.90;;;;;;5091715;28;20216;-85
2023/03/02 08:56:55;;;;;;;2.80;2.60;;;4.70;99.90;;;;;;5073427;28;20281;-85
2023/03/02 08:59:21;;;;;;;3.40;3.20;;;4.70;99.90;;;;;;5090842;28;20212;-85
2023/03/02 09:01:47;;;;;;;5.27;3.87;;;4.90;99.90;;;;;;5090233;28;20278;-85
2023/03/02 09:04:13;;;;;;;4.80;3.77;;;4.80;99.90;;;;;;5090136;28;20717;-85
2023/03/02 09:06:41;;;;;;;3.27;2.97;;;4.80;99.90;;;;;;5090479;28;20239;-86
2023/03/02 09:09:09;;;;;;;2.13;2.00;;;5.00;99.90;;;;;;5091299;28;20223;-86
2023/03/02 09:11:35;;;;;;;5.93;5.27;;;5.00;99.90;;;;;;5091441;28;20177;-85
2023/03/02 09:14:01;;;;;;;3.40;2.13;;;5.20;99.90;;;;;;5091728;28;20176;-85
2023/03/02 09:16:27;;;;;;;7.17;4.73;;;5.20;99.90;;;;;;5073303;28;20280;-84
2023/03/02 09:18:53;;;;;;;7.50;3.90;;;5.50;99.90;;;;;;5089790;28;20232;-85
2023/03/02 09:21:19;;;;;;;4.47;4.03;;;5.80;99.90;;;;;;5091005;27;20228;-86
2023/03/02 09:23:45;;;;;;;4.20;3.93;;;6.00;99.90;;;;;;5089491;28;20184;-85
2023/03/02 09:26:11;;;;;;;6.07;4.50;;;5.90;99.90;;;;;;5073475;28;20204;-85
2023/03/02 09:28:37;;;;;;;9.23;5.07;;;5.80;99.90;;;;;;5072882;28;20569;-85
2023/03/02 09:31:06;;;;;;;4.13;3.73;;;5.90;99.90;;;;;;5091026;28;20216;-86
2023/03/02 09:33:32;;;;;;;8.10;5.10;;;6.10;99.90;;;;;;5089381;28;20231;-86
2023/03/02 09:36:00;;;;;;;6.10;4.17;;;6.10;99.90;;;;;;5089683;28;20208;-87
2023/03/02 09:38:26;;;;;;;6.93;3.53;;;6.10;99.90;;;;;;5090315;28;20177;-85
2023/03/02 09:41:16;;;;;;;3.20;2.90;;;5.70;99.90;;;;;;5089743;28;20215;-86
2023/03/02 09:43:54;;;;;;;6.60;5.20;;;5.90;99.90;;;;;;5089838;28;20804;-86
2023/03/02 09:46:29;;;;;;;7.07;4.93;;;5.80;99.90;;;;;;5089755;28;20693;-85
2023/03/02 09:49:17;;;;;;;6.07;4.23;;;5.90;99.90;;;;;;5089337;28;20239;-86
2023/03/02 09:51:49;;;;;;;4.27;3.83;;;6.20;99.90;;;;;;5089563;28;20212;-86
2023/03/02 09:54:19;;;;;;;6.63;2.33;;;5.90;99.90;;;;;;5089970;28;20209;-86
2023/03/02 09:56:49;;;;;;;8.77;4.40;;;6.00;99.90;;;;;;5089315;28;20181;-87
2023/03/02 09:59:23;;;;;;;10.07;4.13;;;6.00;99.90;;;;;;5091010;28;20354;-86
2023/03/02 10:02:20;;;;;;;5.80;5.27;;;5.80;99.90;;;;;;5088778;28;20281;-85
2023/03/02 10:04:53;;;;;;;11.67;4.83;;;5.90;99.90;;;;;;5089502;28;20204;-89
2023/03/02 10:07:27;;;;;;;9.00;5.10;;;5.80;99.90;;;;;;5090488;28;20239;-88
2023/03/02 10:10:00;;;;;;;4.77;4.00;;;5.80;99.90;;;;;;5089985;28;20222;-88
2023/03/02 10:13:03;;;;;;;13.50;3.63;;;5.90;99.90;;;;;;5089994;28;20300;-89
2023/03/02 10:15:37;;;;;;;6.70;3.77;;;6.20;99.90;;;;;;5090875;28;20307;-89
2023/03/02 10:18:20;;;;;;;5.87;2.80;;;6.30;99.90;;;;;;5089873;28;20627;-88
2023/03/02 10:21:09;;;;;;;8.13;2.73;;;6.20;99.90;;;;;;5090795;28;20212;-88
2023/03/02 10:23:45;;;;;;;5.57;4.20;;;6.30;99.90;;;;;;5089955;28;20766;-88
2023/03/02 10:26:30;;;;;;;6.50;5.03;;;6.50;99.90;;;;;;5090725;28;20169;-89
2023/03/02 10:29:24;;;;;;;6.00;4.43;;;6.60;99.90;;;;;;5089745;28;20239;-90
2023/03/02 10:32:13;;;;;;;5.73;5.07;;;6.60;99.90;;;;;;5090627;28;20220;-88
2023/03/02 10:34:39;;;;;;;9.57;3.73;;;6.50;99.90;;;;;;5078593;28;20677;-89
2023/03/02 10:37:17;;;;;;;6.70;2.37;;;6.90;99.90;;;;;;5088610;28;20212;-84
2023/03/02 10:39:43;;;;;;;8.53;3.70;;;7.40;99.90;;;;;;5088870;28;20301;-85
2023/03/02 10:42:24;;;;;;;5.10;3.20;;;7.60;99.90;;;;;;5088657;28;20601;-86
2023/03/02 10:44:57;;;;;;;8.50;5.90;;;7.60;99.90;;;;;;5087776;28;20173;-84
2023/03/02 10:47:27;;;;;;;6.70;3.57;;;7.70;99.90;;;;;;5088554;28;20172;-84
2023/03/02 10:49:55;;;;;;;13.73;4.27;;;8.40;99.90;;;;;;5087779;28;20243;-85
2023/03/02 10:52:23;;;;;;;8.13;3.70;;;8.80;99.90;;;;;;5087942;28;20262;-85
2023/03/02 10:54:59;;;;;;;7.47;3.57;;;9.00;99.90;;;;;;5087592;28;20295;-85
2023/03/02 10:57:28;;;;;;;9.60;4.37;;;8.90;99.90;;;;;;5087380;28;20223;-86
2023/03/02 11:00:01;;;;;;;13.53;6.53;;;9.10;99.90;;;;;;5087941;28;20236;-86
2023/03/02 11:02:28;;;;;;;13.40;6.27;;;9.10;99.90;;;;;;5088660;28;20161;-86
2023/03/02 11:04:57;;;;;;;6.47;4.53;;;8.90;99.90;;;;;;5071011;28;20212;-87
2023/03/02 11:07:25;;;;;;;6.00;4.63;;;8.00;99.90;;;;;;5091621;28;20212;-86
2023/03/02 11:10:00;;;;;;;7.87;4.63;;;7.10;99.90;;;;;;5091998;28;20212;-87
2023/03/02 11:12:27;;;;;;;9.57;4.13;;;7.20;99.90;;;;;;5091934;28;20211;-86
2023/03/02 11:15:18;;;;;;;10.07;5.10;;;7.50;99.90;;;;;;5092127;28;20270;-85
2023/03/02 11:17:47;;;;;;;8.20;4.30;;;7.30;99.90;;;;;;5091759;28;20289;-85
2023/03/02 11:20:22;;;;;;;4.87;4.43;;;6.60;99.90;;;;;;5092567;28;20240;-85
2023/03/02 11:23:15;;;;;;;9.03;5.20;;;6.90;99.90;;;;;;5092119;28;20277;-85
2023/03/02 11:25:55;;;;;;;7.33;3.20;;;7.10;99.90;;;;;;5091332;28;20216;-86
2023/03/02 11:28:35;;;;;;;4.60;4.20;;;7.90;99.90;;;;;;5091403;28;20208;-86
2023/03/02 11:31:05;;;;;;;8.20;4.50;;;8.30;99.90;;;;;;5090343;28;20220;-86
2023/03/02 11:33:47;;;;;;;8.07;4.83;;;8.60;99.90;;;;;;5091149;28;20220;-86
2023/03/02 11:36:23;;;;;;;11.17;5.47;;;8.30;99.90;;;;;;5090711;28;20331;-85
2023/03/02 11:38:53;;;;;;;8.73;4.47;;;8.20;99.90;;;;;;5091590;28;20227;-86
2023/03/02 11:41:31;;;;;;;9.23;4.17;;;8.40;99.90;;;;;;5093430;28;20168;-85
2023/03/02 11:44:20;;;;;;;7.00;4.87;;;8.50;99.90;;;;;;5090547;28;20269;-87
2023/03/02 11:46:52;;;;;;;9.13;4.60;;;8.10;99.90;;;;;;5091393;28;20223;-88
2023/03/02 11:49:23;;;;;;;4.57;3.73;;;8.30;99.90;;;;;;5091068;28;20302;-87
2023/03/02 11:51:59;;;;;;;5.20;3.40;;;8.30;99.90;;;;;;5092196;28;20346;-88
2023/03/02 11:54:42;;;;;;;9.33;4.60;;;8.20;99.90;;;;;;5092908;28;20238;-87
2023/03/02 11:57:37;;;;;;;8.63;4.67;;;8.00;99.90;;;;;;5091528;28;20209;-86
2023/03/02 12:00:20;;;;;;;6.67;3.33;;;7.80;99.90;;;;;;5090701;28;20288;-87
2023/03/02 12:03:00;;;;;;;7.87;4.93;;;7.70;99.90;;;;;;5092573;28;20173;-87
2023/03/02 12:05:29;;;;;;;4.77;3.27;;;7.30;99.90;;;;;;5091761;28;20169;-87
2023/03/02 12:08:26;;;;;;;11.50;5.27;;;7.30;99.90;;;;;;5092950;28;20225;-87
2023/03/02 12:11:02;;;;;;;4.20;1.77;;;7.80;99.90;;;;;;5082981;28;20699;-87
2023/03/02 12:13:34;;;;;;;6.73;4.33;;;8.20;99.90;;;;;;5090427;28;20565;-87
2023/03/02 12:16:00;;;;;;;8.17;4.00;;;8.30;99.90;;;;;;5091431;28;20277;-87
2023/03/02 12:18:41;;;;;;;4.57;3.33;;;8.30;99.90;;;;;;5089386;28;20313;-87
2023/03/02 12:21:19;;;;;;;4.53;3.37;;;8.40;99.90;;;;;;5091472;28;20220;-88
2023/03/02 12:23:50;;;;;;;5.83;4.63;;;8.10;99.90;;;;;;5091310;28;20528;-87
2023/03/02 12:26:19;;;;;;;2.77;1.90;;;8.20;99.90;;;;;;5092023;28;20200;-87
2023/03/02 12:29:03;;;;;;;3.27;1.97;;;7.90;99.90;;;;;;5091135;28;20297;-87
2023/03/02 12:31:49;;;;;;;5.30;2.43;;;7.60;99.90;;;;;;5092201;28;20227;-87
2023/03/02 12:34:33;;;;;;;2.70;2.03;;;7.40;99.90;;;;;;5090817;28;20224;-87
2023/03/02 12:37:11;;;;;;;1.70;1.40;;;7.20;99.90;;;;;;5092037;28;20212;-87
2023/03/02 12:39:47;;;;;;;1.97;1.47;;;7.40;99.90;;;;;;5090913;28;20227;-87
2023/03/02 12:42:43;;;;;;;2.17;1.97;;;7.30;99.90;;;;;;5092407;28;20704;-87
2023/03/02 12:45:17;;;;;;;1.60;1.50;;;7.50;99.90;;;;;;5090907;28;20582;-86
2023/03/02 12:47:48;;;;;;;4.27;2.57;;;7.40;99.90;;;;;;5090881;28;20295;-86
2023/03/02 12:50:24;;;;;;;4.87;2.60;;;7.20;99.90;;;;;;5092421;28;20226;-87
2023/03/02 12:53:02;;;;;;;1.80;1.70;;;7.10;99.90;;;;;;5090872;28;20281;-87
2023/03/02 12:55:28;;;;;;;2.67;1.50;;;7.30;99.90;;;;;;5091774;28;20217;-86
2023/03/02 12:58:02;;;;;;;4.27;2.50;;;7.30;99.90;;;;;;5089932;28;20216;-87
2023/03/02 13:00:33;;;;;;;2.80;2.10;;;7.20;99.90;;;;;;5088946;28;20275;-87
2023/03/02 13:03:00;;;;;;;3.43;2.77;;;7.20;99.90;;;;;;5090989;28;20300;-89
2023/03/02 13:05:33;;;;;;;2.03;1.60;;;7.20;99.90;;;;;;5073881;28;20185;-87
2023/03/02 13:08:12;;;;;;;4.53;2.00;;;7.00;99.90;;;;;;5090288;28;20215;-88